sensor_id;sensor_type;location;lat;lon;timestamp;P1;durP1;ratioP1;P2;durP2;ratioP2
35646;SDS011;28680;45.642;13.756;2023-01-19T00:00:34;1.30;;;1.10;;
35646;SDS011;28680;45.642;13.756;2023-01-19T00:03:01;1.70;;;1.15;;
35646;SDS011;28680;45.642;13.756;2023-01-19T00:05:28;1.10;;;0.90;;
35646;SDS011;28680;45.642;13.756;2023-01-19T00:07:55;1.45;;;1.20;;
35646;SDS011;28680;45.642;13.756;2023-01-19T00:10:20;1.92;;;1.05;;
35646;SDS011;28680;45.642;13.756;2023-01-19T00:12:46;2.45;;;1.25;;
35646;SDS011;28680;45.642;13.756;2023-01-19T00:15:12;1.90;;;1.30;;
35646;SDS011;28680;45.642;13.756;2023-01-19T00:17:38;1.80;;;1.30;;
35646;SDS011;28680;45.642;13.756;2023-01-19T00:20:05;4.07;;;1.48;;
35646;SDS011;28680;45.642;13.756;2023-01-19T00:22:33;3.53;;;1.40;;
35646;SDS011;28680;45.642;13.756;2023-01-19T00:24:59;2.78;;;1.80;;
35646;SDS011;28680;45.642;13.756;2023-01-19T00:27:24;2.03;;;1.40;;
35646;SDS011;28680;45.642;13.756;2023-01-19T00:29:50;2.60;;;1.77;;
35646;SDS011;28680;45.642;13.756;2023-01-19T00:32:16;2.97;;;1.58;;
35646;SDS011;28680;45.642;13.756;2023-01-19T00:34:43;2.38;;;1.50;;
35646;SDS011;28680;45.642;13.756;2023-01-19T00:37:13;3.08;;;1.63;;
35646;SDS011;28680;45.642;13.756;2023-01-19T00:39:40;2.22;;;1.70;;
35646;SDS011;28680;45.642;13.756;2023-01-19T00:42:07;2.33;;;1.77;;
35646;SDS011;28680;45.642;13.756;2023-01-19T00:44:55;2.83;;;1.70;;
35646;SDS011;28680;45.642;13.756;2023-01-19T00:47:22;2.25;;;1.63;;
35646;SDS011;28680;45.642;13.756;2023-01-19T00:49:47;1.95;;;1.25;;
35646;SDS011;28680;45.642;13.756;2023-01-19T00:52:13;1.65;;;1.30;;
35646;SDS011;28680;45.642;13.756;2023-01-19T00:54:39;2.53;;;1.50;;
35646;SDS011;28680;45.642;13.756;2023-01-19T00:57:05;1.75;;;1.30;;
35646;SDS011;28680;45.642;13.756;2023-01-19T00:59:31;2.35;;;1.50;;
35646;SDS011;28680;45.642;13.756;2023-01-19T01:01:56;3.15;;;1.67;;
35646;SDS011;28680;45.642;13.756;2023-01-19T01:04:22;2.88;;;1.25;;
35646;SDS011;28680;45.642;13.756;2023-01-19T01:06:48;1.70;;;1.10;;
35646;SDS011;28680;45.642;13.756;2023-01-19T01:09:14;1.27;;;1.05;;
35646;SDS011;28680;45.642;13.756;2023-01-19T01:11:40;1.27;;;1.08;;
35646;SDS011;28680;45.642;13.756;2023-01-19T01:14:08;1.33;;;1.10;;
35646;SDS011;28680;45.642;13.756;2023-01-19T01:16:35;1.35;;;1.00;;
35646;SDS011;28680;45.642;13.756;2023-01-19T01:19:01;1.10;;;0.90;;
35646;SDS011;28680;45.642;13.756;2023-01-19T01:21:27;0.88;;;0.70;;
35646;SDS011;28680;45.642;13.756;2023-01-19T01:23:53;1.08;;;0.80;;
35646;SDS011;28680;45.642;13.756;2023-01-19T01:26:19;1.00;;;0.80;;
35646;SDS011;28680;45.642;13.756;2023-01-19T01:28:44;0.98;;;0.70;;
35646;SDS011;28680;45.642;13.756;2023-01-19T01:31:10;0.80;;;0.75;;
35646;SDS011;28680;45.642;13.756;2023-01-19T01:33:36;0.70;;;0.65;;
35646;SDS011;28680;45.642;13.756;2023-01-19T01:36:02;1.23;;;0.90;;
35646;SDS011;28680;45.642;13.756;2023-01-19T01:38:29;0.70;;;0.50;;
35646;SDS011;28680;45.642;13.756;2023-01-19T01:40:54;0.55;;;0.55;;
35646;SDS011;28680;45.642;13.756;2023-01-19T01:43:20;0.65;;;0.50;;
35646;SDS011;28680;45.642;13.756;2023-01-19T01:45:46;0.57;;;0.57;;
35646;SDS011;28680;45.642;13.756;2023-01-19T01:48:13;0.70;;;0.70;;
35646;SDS011;28680;45.642;13.756;2023-01-19T01:51:05;0.65;;;0.60;;
35646;SDS011;28680;45.642;13.756;2023-01-19T01:56:43;0.98;;;0.70;;
35646;SDS011;28680;45.642;13.756;2023-01-19T01:59:16;0.60;;;0.60;;
35646;SDS011;28680;45.642;13.756;2023-01-19T02:01:55;0.60;;;0.60;;
35646;SDS011;28680;45.642;13.756;2023-01-19T02:04:45;0.60;;;0.60;;
35646;SDS011;28680;45.642;13.756;2023-01-19T02:07:16;0.63;;;0.60;;
35646;SDS011;28680;45.642;13.756;2023-01-19T02:10:12;1.15;;;0.90;;
35646;SDS011;28680;45.642;13.756;2023-01-19T02:12:56;1.02;;;0.60;;
35646;SDS011;28680;45.642;13.756;2023-01-19T02:15:42;0.60;;;0.60;;
35646;SDS011;28680;45.642;13.756;2023-01-19T02:18:08;0.75;;;0.70;;
35646;SDS011;28680;45.642;13.756;2023-01-19T02:20:35;0.82;;;0.60;;
35646;SDS011;28680;45.642;13.756;2023-01-19T02:23:04;0.77;;;0.77;;
35646;SDS011;28680;45.642;13.756;2023-01-19T02:25:39;0.88;;;0.88;;
35646;SDS011;28680;45.642;13.756;2023-01-19T02:28:05;1.20;;;0.80;;
35646;SDS011;28680;45.642;13.756;2023-01-19T02:30:31;1.48;;;0.80;;
35646;SDS011;28680;45.642;13.756;2023-01-19T02:32:59;0.85;;;0.73;;
35646;SDS011;28680;45.642;13.756;2023-01-19T02:35:25;0.90;;;0.80;;
35646;SDS011;28680;45.642;13.756;2023-01-19T02:37:51;0.60;;;0.60;;
35646;SDS011;28680;45.642;13.756;2023-01-19T02:40:18;1.30;;;0.85;;
35646;SDS011;28680;45.642;13.756;2023-01-19T02:42:49;0.90;;;0.77;;
35646;SDS011;28680;45.642;13.756;2023-01-19T02:45:20;0.82;;;0.70;;
35646;SDS011;28680;45.642;13.756;2023-01-19T02:47:47;0.95;;;0.70;;
35646;SDS011;28680;45.642;13.756;2023-01-19T03:06:02;0.85;;;0.77;;
35646;SDS011;28680;45.642;13.756;2023-01-19T03:11:37;0.80;;;0.70;;
35646;SDS011;28680;45.642;13.756;2023-01-19T03:14:14;1.33;;;0.88;;
35646;SDS011;28680;45.642;13.756;2023-01-19T03:16:50;0.82;;;0.70;;
35646;SDS011;28680;45.642;13.756;2023-01-19T03:19:23;0.60;;;0.60;;
35646;SDS011;28680;45.642;13.756;2023-01-19T03:21:57;0.70;;;0.70;;
35646;SDS011;28680;45.642;13.756;2023-01-19T03:24:32;0.90;;;0.65;;
35646;SDS011;28680;45.642;13.756;2023-01-19T03:29:51;0.65;;;0.52;;
35646;SDS011;28680;45.642;13.756;2023-01-19T03:32:24;0.90;;;0.70;;
35646;SDS011;28680;45.642;13.756;2023-01-19T03:34:58;0.90;;;0.68;;
35646;SDS011;28680;45.642;13.756;2023-01-19T03:37:27;2.33;;;0.60;;
35646;SDS011;28680;45.642;13.756;2023-01-19T03:39:56;0.90;;;0.60;;
35646;SDS011;28680;45.642;13.756;2023-01-19T03:42:22;0.52;;;0.50;;
35646;SDS011;28680;45.642;13.756;2023-01-19T03:44:49;0.50;;;0.47;;
35646;SDS011;28680;45.642;13.756;2023-01-19T03:47:19;0.50;;;0.50;;
35646;SDS011;28680;45.642;13.756;2023-01-19T03:49:46;0.40;;;0.40;;
35646;SDS011;28680;45.642;13.756;2023-01-19T03:52:16;1.83;;;0.40;;
35646;SDS011;28680;45.642;13.756;2023-01-19T03:54:50;0.88;;;0.47;;
35646;SDS011;28680;45.642;13.756;2023-01-19T03:57:15;0.70;;;0.43;;
35646;SDS011;28680;45.642;13.756;2023-01-19T03:59:41;0.60;;;0.50;;
35646;SDS011;28680;45.642;13.756;2023-01-19T04:02:07;0.50;;;0.50;;
35646;SDS011;28680;45.642;13.756;2023-01-19T04:04:33;0.57;;;0.47;;
35646;SDS011;28680;45.642;13.756;2023-01-19T04:06:59;2.72;;;0.73;;
35646;SDS011;28680;45.642;13.756;2023-01-19T04:09:25;0.30;;;0.30;;
35646;SDS011;28680;45.642;13.756;2023-01-19T04:11:51;0.50;;;0.30;;
35646;SDS011;28680;45.642;13.756;2023-01-19T04:14:17;0.30;;;0.30;;
35646;SDS011;28680;45.642;13.756;2023-01-19T04:16:43;0.30;;;0.30;;
35646;SDS011;28680;45.642;13.756;2023-01-19T04:19:09;0.60;;;0.40;;
35646;SDS011;28680;45.642;13.756;2023-01-19T04:21:35;0.30;;;0.30;;
35646;SDS011;28680;45.642;13.756;2023-01-19T04:24:01;0.30;;;0.30;;
35646;SDS011;28680;45.642;13.756;2023-01-19T04:26:27;0.30;;;0.30;;
35646;SDS011;28680;45.642;13.756;2023-01-19T04:28:52;0.30;;;0.30;;
35646;SDS011;28680;45.642;13.756;2023-01-19T04:31:18;0.63;;;0.30;;
35646;SDS011;28680;45.642;13.756;2023-01-19T04:33:46;0.30;;;0.30;;
35646;SDS011;28680;45.642;13.756;2023-01-19T04:36:12;1.55;;;0.40;;
35646;SDS011;28680;45.642;13.756;2023-01-19T04:38:38;0.40;;;0.40;;
35646;SDS011;28680;45.642;13.756;2023-01-19T04:41:04;0.30;;;0.30;;
35646;SDS011;28680;45.642;13.756;2023-01-19T04:43:31;0.20;;;0.20;;
35646;SDS011;28680;45.642;13.756;2023-01-19T04:45:57;0.30;;;0.30;;
35646;SDS011;28680;45.642;13.756;2023-01-19T04:48:23;1.15;;;0.50;;
35646;SDS011;28680;45.642;13.756;2023-01-19T04:50:49;0.43;;;0.43;;
35646;SDS011;28680;45.642;13.756;2023-01-19T04:53:16;0.20;;;0.20;;
35646;SDS011;28680;45.642;13.756;2023-01-19T04:55:42;0.38;;;0.38;;
35646;SDS011;28680;45.642;13.756;2023-01-19T04:58:08;0.40;;;0.40;;
35646;SDS011;28680;45.642;13.756;2023-01-19T05:00:34;0.40;;;0.40;;
35646;SDS011;28680;45.642;13.756;2023-01-19T05:03:00;0.35;;;0.35;;
35646;SDS011;28680;45.642;13.756;2023-01-19T05:05:26;0.47;;;0.30;;
35646;SDS011;28680;45.642;13.756;2023-01-19T05:07:52;0.40;;;0.40;;
35646;SDS011;28680;45.642;13.756;2023-01-19T05:10:18;1.35;;;0.40;;
35646;SDS011;28680;45.642;13.756;2023-01-19T05:12:44;0.35;;;0.30;;
35646;SDS011;28680;45.642;13.756;2023-01-19T05:15:10;0.30;;;0.30;;
35646;SDS011;28680;45.642;13.756;2023-01-19T05:17:36;0.70;;;0.70;;
35646;SDS011;28680;45.642;13.756;2023-01-19T05:20:02;0.40;;;0.40;;
35646;SDS011;28680;45.642;13.756;2023-01-19T05:22:29;0.28;;;0.28;;
35646;SDS011;28680;45.642;13.756;2023-01-19T05:24:55;0.30;;;0.30;;
35646;SDS011;28680;45.642;13.756;2023-01-19T05:27:21;0.60;;;0.40;;
35646;SDS011;28680;45.642;13.756;2023-01-19T05:29:47;0.30;;;0.30;;
35646;SDS011;28680;45.642;13.756;2023-01-19T05:32:13;0.55;;;0.40;;
35646;SDS011;28680;45.642;13.756;2023-01-19T05:34:38;0.45;;;0.30;;
35646;SDS011;28680;45.642;13.756;2023-01-19T05:37:04;0.40;;;0.40;;
35646;SDS011;28680;45.642;13.756;2023-01-19T05:39:30;0.35;;;0.35;;
35646;SDS011;28680;45.642;13.756;2023-01-19T05:41:57;0.50;;;0.30;;
35646;SDS011;28680;45.642;13.756;2023-01-19T05:44:23;0.30;;;0.30;;
35646;SDS011;28680;45.642;13.756;2023-01-19T05:46:48;0.40;;;0.40;;
35646;SDS011;28680;45.642;13.756;2023-01-19T05:49:15;0.40;;;0.40;;
35646;SDS011;28680;45.642;13.756;2023-01-19T05:51:41;1.40;;;1.13;;
35646;SDS011;28680;45.642;13.756;2023-01-19T05:54:10;0.43;;;0.40;;
35646;SDS011;28680;45.642;13.756;2023-01-19T05:56:39;0.32;;;0.30;;
35646;SDS011;28680;45.642;13.756;2023-01-19T05:59:05;0.40;;;0.30;;
35646;SDS011;28680;45.642;13.756;2023-01-19T06:01:31;0.57;;;0.43;;
35646;SDS011;28680;45.642;13.756;2023-01-19T06:03:59;0.68;;;0.40;;
35646;SDS011;28680;45.642;13.756;2023-01-19T06:06:25;0.55;;;0.50;;
35646;SDS011;28680;45.642;13.756;2023-01-19T06:08:51;0.40;;;0.40;;
35646;SDS011;28680;45.642;13.756;2023-01-19T06:11:17;0.55;;;0.30;;
35646;SDS011;28680;45.642;13.756;2023-01-19T06:13:42;0.63;;;0.40;;
35646;SDS011;28680;45.642;13.756;2023-01-19T06:16:09;0.40;;;0.40;;
35646;SDS011;28680;45.642;13.756;2023-01-19T06:18:35;0.55;;;0.50;;
35646;SDS011;28680;45.642;13.756;2023-01-19T06:21:02;0.50;;;0.50;;
35646;SDS011;28680;45.642;13.756;2023-01-19T06:23:31;0.93;;;0.60;;
35646;SDS011;28680;45.642;13.756;2023-01-19T06:25:58;0.57;;;0.57;;
35646;SDS011;28680;45.642;13.756;2023-01-19T06:28:25;0.80;;;0.40;;
35646;SDS011;28680;45.642;13.756;2023-01-19T06:30:51;0.73;;;0.40;;
35646;SDS011;28680;45.642;13.756;2023-01-19T06:33:19;0.50;;;0.50;;
35646;SDS011;28680;45.642;13.756;2023-01-19T06:35:46;0.57;;;0.40;;
35646;SDS011;28680;45.642;13.756;2023-01-19T06:38:13;0.75;;;0.57;;
35646;SDS011;28680;45.642;13.756;2023-01-19T06:40:42;0.40;;;0.40;;
35646;SDS011;28680;45.642;13.756;2023-01-19T06:43:09;1.10;;;0.40;;
35646;SDS011;28680;45.642;13.756;2023-01-19T06:45:36;0.40;;;0.40;;
35646;SDS011;28680;45.642;13.756;2023-01-19T06:48:03;0.70;;;0.70;;
35646;SDS011;28680;45.642;13.756;2023-01-19T06:50:30;0.50;;;0.50;;
35646;SDS011;28680;45.642;13.756;2023-01-19T06:52:55;0.70;;;0.63;;
35646;SDS011;28680;45.642;13.756;2023-01-19T06:55:21;0.70;;;0.50;;
35646;SDS011;28680;45.642;13.756;2023-01-19T06:57:47;0.77;;;0.60;;
35646;SDS011;28680;45.642;13.756;2023-01-19T07:00:19;0.40;;;0.40;;
35646;SDS011;28680;45.642;13.756;2023-01-19T07:02:46;1.30;;;0.50;;
35646;SDS011;28680;45.642;13.756;2023-01-19T07:05:11;0.77;;;0.40;;
35646;SDS011;28680;45.642;13.756;2023-01-19T07:07:38;1.02;;;0.40;;
35646;SDS011;28680;45.642;13.756;2023-01-19T07:10:06;0.98;;;0.40;;
35646;SDS011;28680;45.642;13.756;2023-01-19T07:12:36;0.73;;;0.50;;
35646;SDS011;28680;45.642;13.756;2023-01-19T07:15:03;0.82;;;0.30;;
35646;SDS011;28680;45.642;13.756;2023-01-19T07:17:30;0.88;;;0.55;;
35646;SDS011;28680;45.642;13.756;2023-01-19T07:19:56;1.13;;;0.55;;
35646;SDS011;28680;45.642;13.756;2023-01-19T07:22:22;0.40;;;0.40;;
35646;SDS011;28680;45.642;13.756;2023-01-19T07:24:47;1.00;;;0.57;;
35646;SDS011;28680;45.642;13.756;2023-01-19T07:27:13;0.50;;;0.40;;
35646;SDS011;28680;45.642;13.756;2023-01-19T07:29:40;0.90;;;0.57;;
35646;SDS011;28680;45.642;13.756;2023-01-19T07:32:06;0.30;;;0.30;;
35646;SDS011;28680;45.642;13.756;2023-01-19T07:34:32;0.68;;;0.35;;
35646;SDS011;28680;45.642;13.756;2023-01-19T07:36:58;0.50;;;0.50;;
35646;SDS011;28680;45.642;13.756;2023-01-19T07:39:24;0.73;;;0.43;;
35646;SDS011;28680;45.642;13.756;2023-01-19T07:41:50;0.45;;;0.43;;
35646;SDS011;28680;45.642;13.756;2023-01-19T07:44:16;0.40;;;0.40;;
35646;SDS011;28680;45.642;13.756;2023-01-19T07:46:42;0.30;;;0.30;;
35646;SDS011;28680;45.642;13.756;2023-01-19T07:49:08;0.70;;;0.50;;
35646;SDS011;28680;45.642;13.756;2023-01-19T07:51:34;0.40;;;0.40;;
35646;SDS011;28680;45.642;13.756;2023-01-19T07:54:00;1.05;;;0.88;;
35646;SDS011;28680;45.642;13.756;2023-01-19T07:56:26;0.60;;;0.60;;
35646;SDS011;28680;45.642;13.756;2023-01-19T07:58:54;0.30;;;0.30;;
35646;SDS011;28680;45.642;13.756;2023-01-19T08:01:20;0.80;;;0.80;;
35646;SDS011;28680;45.642;13.756;2023-01-19T08:03:46;2.53;;;0.60;;
35646;SDS011;28680;45.642;13.756;2023-01-19T08:06:20;0.55;;;0.30;;
35646;SDS011;28680;45.642;13.756;2023-01-19T08:08:51;0.32;;;0.30;;
35646;SDS011;28680;45.642;13.756;2023-01-19T08:11:17;0.60;;;0.35;;
35646;SDS011;28680;45.642;13.756;2023-01-19T08:13:43;0.25;;;0.25;;
35646;SDS011;28680;45.642;13.756;2023-01-19T08:16:09;0.30;;;0.30;;
35646;SDS011;28680;45.642;13.756;2023-01-19T08:18:34;0.30;;;0.30;;
35646;SDS011;28680;45.642;13.756;2023-01-19T08:21:00;0.30;;;0.30;;
35646;SDS011;28680;45.642;13.756;2023-01-19T08:23:26;0.82;;;0.40;;
35646;SDS011;28680;45.642;13.756;2023-01-19T08:25:52;0.68;;;0.30;;
35646;SDS011;28680;45.642;13.756;2023-01-19T08:28:19;1.83;;;1.60;;
35646;SDS011;28680;45.642;13.756;2023-01-19T08:30:45;0.65;;;0.30;;
35646;SDS011;28680;45.642;13.756;2023-01-19T08:33:18;0.30;;;0.30;;
35646;SDS011;28680;45.642;13.756;2023-01-19T08:35:49;0.40;;;0.40;;
35646;SDS011;28680;45.642;13.756;2023-01-19T08:38:17;0.90;;;0.40;;
35646;SDS011;28680;45.642;13.756;2023-01-19T08:40:43;0.20;;;0.20;;
35646;SDS011;28680;45.642;13.756;2023-01-19T08:43:10;0.30;;;0.30;;
35646;SDS011;28680;45.642;13.756;2023-01-19T08:45:40;0.30;;;0.30;;
35646;SDS011;28680;45.642;13.756;2023-01-19T08:48:14;0.25;;;0.22;;
35646;SDS011;28680;45.642;13.756;2023-01-19T08:50:44;0.30;;;0.30;;
35646;SDS011;28680;45.642;13.756;2023-01-19T08:53:11;0.32;;;0.32;;
35646;SDS011;28680;45.642;13.756;2023-01-19T08:55:37;0.30;;;0.30;;
35646;SDS011;28680;45.642;13.756;2023-01-19T08:58:04;0.30;;;0.30;;
35646;SDS011;28680;45.642;13.756;2023-01-19T09:00:32;0.52;;;0.30;;
35646;SDS011;28680;45.642;13.756;2023-01-19T09:02:59;0.40;;;0.30;;
35646;SDS011;28680;45.642;13.756;2023-01-19T09:05:27;0.30;;;0.30;;
35646;SDS011;28680;45.642;13.756;2023-01-19T09:07:53;0.30;;;0.30;;
35646;SDS011;28680;45.642;13.756;2023-01-19T09:10:19;0.40;;;0.40;;
35646;SDS011;28680;45.642;13.756;2023-01-19T09:12:44;0.30;;;0.30;;
35646;SDS011;28680;45.642;13.756;2023-01-19T09:15:10;0.43;;;0.30;;
35646;SDS011;28680;45.642;13.756;2023-01-19T09:17:40;0.80;;;0.60;;
35646;SDS011;28680;45.642;13.756;2023-01-19T09:20:06;0.30;;;0.30;;
35646;SDS011;28680;45.642;13.756;2023-01-19T09:22:33;0.30;;;0.30;;
35646;SDS011;28680;45.642;13.756;2023-01-19T09:24:59;1.08;;;0.55;;
35646;SDS011;28680;45.642;13.756;2023-01-19T09:27:24;0.75;;;0.50;;
35646;SDS011;28680;45.642;13.756;2023-01-19T09:29:50;0.85;;;0.40;;
35646;SDS011;28680;45.642;13.756;2023-01-19T09:32:18;0.77;;;0.40;;
35646;SDS011;28680;45.642;13.756;2023-01-19T09:34:47;0.73;;;0.73;;
35646;SDS011;28680;45.642;13.756;2023-01-19T09:37:13;0.40;;;0.40;;
35646;SDS011;28680;45.642;13.756;2023-01-19T09:39:41;0.73;;;0.40;;
35646;SDS011;28680;45.642;13.756;2023-01-19T09:42:12;1.15;;;0.65;;
35646;SDS011;28680;45.642;13.756;2023-01-19T09:45:01;0.50;;;0.45;;
35646;SDS011;28680;45.642;13.756;2023-01-19T09:47:36;3.20;;;1.10;;
35646;SDS011;28680;45.642;13.756;2023-01-19T09:50:05;2.15;;;0.55;;
35646;SDS011;28680;45.642;13.756;2023-01-19T09:52:57;0.50;;;0.50;;
35646;SDS011;28680;45.642;13.756;2023-01-19T09:55:31;0.60;;;0.40;;
35646;SDS011;28680;45.642;13.756;2023-01-19T09:57:58;0.95;;;0.40;;
35646;SDS011;28680;45.642;13.756;2023-01-19T10:00:23;0.47;;;0.47;;
35646;SDS011;28680;45.642;13.756;2023-01-19T10:03:05;0.60;;;0.30;;
35646;SDS011;28680;45.642;13.756;2023-01-19T10:05:48;0.55;;;0.40;;
35646;SDS011;28680;45.642;13.756;2023-01-19T10:11:41;0.40;;;0.40;;
35646;SDS011;28680;45.642;13.756;2023-01-19T10:14:05;1.42;;;0.40;;
35646;SDS011;28680;45.642;13.756;2023-01-19T10:19:46;0.30;;;0.30;;
35646;SDS011;28680;45.642;13.756;2023-01-19T10:22:19;0.90;;;0.30;;
35646;SDS011;28680;45.642;13.756;2023-01-19T10:24:52;0.63;;;0.50;;
35646;SDS011;28680;45.642;13.756;2023-01-19T10:27:31;0.57;;;0.50;;
35646;SDS011;28680;45.642;13.756;2023-01-19T10:30:01;0.88;;;0.38;;
35646;SDS011;28680;45.642;13.756;2023-01-19T10:32:28;1.40;;;0.55;;
35646;SDS011;28680;45.642;13.756;2023-01-19T10:34:59;0.63;;;0.43;;
35646;SDS011;28680;45.642;13.756;2023-01-19T10:37:38;1.45;;;0.63;;
35646;SDS011;28680;45.642;13.756;2023-01-19T10:42:37;0.95;;;0.50;;
35646;SDS011;28680;45.642;13.756;2023-01-19T10:45:14;1.00;;;0.60;;
35646;SDS011;28680;45.642;13.756;2023-01-19T10:47:41;1.20;;;0.45;;
35646;SDS011;28680;45.642;13.756;2023-01-19T10:50:29;0.82;;;0.55;;
35646;SDS011;28680;45.642;13.756;2023-01-19T10:53:15;3.38;;;2.40;;
35646;SDS011;28680;45.642;13.756;2023-01-19T10:55:46;1.48;;;0.60;;
35646;SDS011;28680;45.642;13.756;2023-01-19T10:58:33;0.63;;;0.50;;
35646;SDS011;28680;45.642;13.756;2023-01-19T11:01:22;0.65;;;0.40;;
35646;SDS011;28680;45.642;13.756;2023-01-19T11:03:48;0.40;;;0.40;;
35646;SDS011;28680;45.642;13.756;2023-01-19T11:06:19;1.95;;;0.57;;
35646;SDS011;28680;45.642;13.756;2023-01-19T11:08:49;0.75;;;0.50;;
35646;SDS011;28680;45.642;13.756;2023-01-19T11:11:17;1.95;;;0.40;;
35646;SDS011;28680;45.642;13.756;2023-01-19T11:14:00;1.58;;;0.60;;
35646;SDS011;28680;45.642;13.756;2023-01-19T11:16:37;0.80;;;0.65;;
35646;SDS011;28680;45.642;13.756;2023-01-19T11:19:27;0.55;;;0.40;;
35646;SDS011;28680;45.642;13.756;2023-01-19T11:22:15;2.13;;;1.17;;
35646;SDS011;28680;45.642;13.756;2023-01-19T11:24:46;3.80;;;1.00;;
35646;SDS011;28680;45.642;13.756;2023-01-19T11:27:16;1.80;;;0.70;;
35646;SDS011;28680;45.642;13.756;2023-01-19T11:30:03;4.53;;;1.10;;
35646;SDS011;28680;45.642;13.756;2023-01-19T11:32:42;2.30;;;0.85;;
35646;SDS011;28680;45.642;13.756;2023-01-19T11:35:31;1.50;;;0.90;;
35646;SDS011;28680;45.642;13.756;2023-01-19T11:40:37;0.93;;;0.77;;
35646;SDS011;28680;45.642;13.756;2023-01-19T11:43:04;2.92;;;0.70;;
35646;SDS011;28680;45.642;13.756;2023-01-19T11:45:30;2.53;;;0.80;;
35646;SDS011;28680;45.642;13.756;2023-01-19T11:48:00;1.67;;;0.80;;
35646;SDS011;28680;45.642;13.756;2023-01-19T11:50:30;2.90;;;0.70;;
35646;SDS011;28680;45.642;13.756;2023-01-19T11:53:26;0.80;;;0.57;;
35646;SDS011;28680;45.642;13.756;2023-01-19T11:56:00;1.08;;;0.70;;
35646;SDS011;28680;45.642;13.756;2023-01-19T11:58:38;0.60;;;0.50;;
35646;SDS011;28680;45.642;13.756;2023-01-19T12:06:36;0.93;;;0.63;;
35646;SDS011;28680;45.642;13.756;2023-01-19T12:11:43;0.50;;;0.50;;
35646;SDS011;28680;45.642;13.756;2023-01-19T12:14:37;0.60;;;0.50;;
35646;SDS011;28680;45.642;13.756;2023-01-19T12:17:34;0.55;;;0.50;;
35646;SDS011;28680;45.642;13.756;2023-01-19T12:22:57;1.98;;;0.82;;
35646;SDS011;28680;45.642;13.756;2023-01-19T12:28:53;1.42;;;1.10;;
35646;SDS011;28680;45.642;13.756;2023-01-19T12:31:32;0.82;;;0.65;;
35646;SDS011;28680;45.642;13.756;2023-01-19T12:34:45;0.82;;;0.60;;
35646;SDS011;28680;45.642;13.756;2023-01-19T12:36:49;1.40;;;0.90;;
35646;SDS011;28680;45.642;13.756;2023-01-19T12:39:20;0.63;;;0.50;;
35646;SDS011;28680;45.642;13.756;2023-01-19T12:41:47;1.05;;;0.80;;
35646;SDS011;28680;45.642;13.756;2023-01-19T12:44:27;2.50;;;1.30;;
35646;SDS011;28680;45.642;13.756;2023-01-19T12:46:58;1.17;;;0.57;;
35646;SDS011;28680;45.642;13.756;2023-01-19T12:49:54;0.55;;;0.50;;
35646;SDS011;28680;45.642;13.756;2023-01-19T12:57:54;2.20;;;0.65;;
35646;SDS011;28680;45.642;13.756;2023-01-19T13:00:37;1.00;;;0.60;;
35646;SDS011;28680;45.642;13.756;2023-01-19T13:13:24;0.68;;;0.60;;
35646;SDS011;28680;45.642;13.756;2023-01-19T13:15:52;0.60;;;0.60;;
35646;SDS011;28680;45.642;13.756;2023-01-19T13:18:20;1.20;;;0.60;;
35646;SDS011;28680;45.642;13.756;2023-01-19T13:20:53;1.25;;;0.98;;
35646;SDS011;28680;45.642;13.756;2023-01-19T13:23:27;0.88;;;0.70;;
35646;SDS011;28680;45.642;13.756;2023-01-19T13:26:16;0.57;;;0.50;;
35646;SDS011;28680;45.642;13.756;2023-01-19T13:28:55;1.88;;;0.68;;
35646;SDS011;28680;45.642;13.756;2023-01-19T13:31:54;0.50;;;0.50;;
35646;SDS011;28680;45.642;13.756;2023-01-19T13:37:42;1.00;;;0.60;;
35646;SDS011;28680;45.642;13.756;2023-01-19T13:40:22;2.50;;;0.70;;
35646;SDS011;28680;45.642;13.756;2023-01-19T13:42:54;0.50;;;0.50;;
35646;SDS011;28680;45.642;13.756;2023-01-19T13:45:28;1.02;;;0.50;;
35646;SDS011;28680;45.642;13.756;2023-01-19T13:48:03;1.38;;;0.50;;
35646;SDS011;28680;45.642;13.756;2023-01-19T13:50:33;0.80;;;0.50;;
35646;SDS011;28680;45.642;13.756;2023-01-19T13:53:17;0.63;;;0.60;;
35646;SDS011;28680;45.642;13.756;2023-01-19T13:55:44;0.73;;;0.63;;
35646;SDS011;28680;45.642;13.756;2023-01-19T13:58:21;0.52;;;0.50;;
35646;SDS011;28680;45.642;13.756;2023-01-19T14:00:48;0.80;;;0.70;;
35646;SDS011;28680;45.642;13.756;2023-01-19T14:05:40;0.80;;;0.60;;
35646;SDS011;28680;45.642;13.756;2023-01-19T14:10:46;1.15;;;0.50;;
35646;SDS011;28680;45.642;13.756;2023-01-19T14:15:50;2.13;;;0.73;;
35646;SDS011;28680;45.642;13.756;2023-01-19T14:23:42;0.88;;;0.50;;
35646;SDS011;28680;45.642;13.756;2023-01-19T14:32:02;1.05;;;0.70;;
35646;SDS011;28680;45.642;13.756;2023-01-19T14:34:51;0.98;;;0.60;;
35646;SDS011;28680;45.642;13.756;2023-01-19T14:37:29;0.65;;;0.60;;
35646;SDS011;28680;45.642;13.756;2023-01-19T14:40:02;1.42;;;0.70;;
35646;SDS011;28680;45.642;13.756;2023-01-19T14:42:49;4.00;;;1.25;;
35646;SDS011;28680;45.642;13.756;2023-01-19T14:45:32;1.25;;;0.63;;
35646;SDS011;28680;45.642;13.756;2023-01-19T14:48:02;1.13;;;0.80;;
35646;SDS011;28680;45.642;13.756;2023-01-19T14:50:39;0.93;;;0.60;;
35646;SDS011;28680;45.642;13.756;2023-01-19T14:53:07;1.98;;;0.85;;
35646;SDS011;28680;45.642;13.756;2023-01-19T14:58:14;1.25;;;0.80;;
35646;SDS011;28680;45.642;13.756;2023-01-19T15:00:43;1.92;;;1.00;;
35646;SDS011;28680;45.642;13.756;2023-01-19T15:03:10;1.60;;;0.70;;
35646;SDS011;28680;45.642;13.756;2023-01-19T15:05:39;1.08;;;0.73;;
35646;SDS011;28680;45.642;13.756;2023-01-19T15:08:14;0.90;;;0.70;;
35646;SDS011;28680;45.642;13.756;2023-01-19T15:10:49;1.00;;;0.60;;
35646;SDS011;28680;45.642;13.756;2023-01-19T15:13:19;0.90;;;0.80;;
35646;SDS011;28680;45.642;13.756;2023-01-19T15:15:48;0.82;;;0.65;;
35646;SDS011;28680;45.642;13.756;2023-01-19T15:18:16;1.10;;;0.73;;
35646;SDS011;28680;45.642;13.756;2023-01-19T15:20:48;1.73;;;1.20;;
35646;SDS011;28680;45.642;13.756;2023-01-19T15:23:14;0.80;;;0.60;;
35646;SDS011;28680;45.642;13.756;2023-01-19T15:25:40;1.38;;;0.88;;
35646;SDS011;28680;45.642;13.756;2023-01-19T15:28:10;1.50;;;0.73;;
35646;SDS011;28680;45.642;13.756;2023-01-19T15:30:38;2.25;;;0.88;;
35646;SDS011;28680;45.642;13.756;2023-01-19T15:33:04;0.95;;;0.60;;
35646;SDS011;28680;45.642;13.756;2023-01-19T15:35:30;2.00;;;0.88;;
35646;SDS011;28680;45.642;13.756;2023-01-19T15:37:56;1.23;;;0.77;;
35646;SDS011;28680;45.642;13.756;2023-01-19T15:40:22;1.17;;;0.80;;
35646;SDS011;28680;45.642;13.756;2023-01-19T15:42:48;0.95;;;0.77;;
35646;SDS011;28680;45.642;13.756;2023-01-19T15:48:06;0.95;;;0.70;;
35646;SDS011;28680;45.642;13.756;2023-01-19T15:50:36;1.48;;;0.98;;
35646;SDS011;28680;45.642;13.756;2023-01-19T15:53:05;2.33;;;0.98;;
35646;SDS011;28680;45.642;13.756;2023-01-19T15:55:32;1.85;;;0.88;;
35646;SDS011;28680;45.642;13.756;2023-01-19T15:57:58;1.73;;;0.80;;
35646;SDS011;28680;45.642;13.756;2023-01-19T16:00:30;0.77;;;0.73;;
35646;SDS011;28680;45.642;13.756;2023-01-19T16:02:58;1.42;;;1.00;;
35646;SDS011;28680;45.642;13.756;2023-01-19T16:05:26;2.65;;;0.80;;
35646;SDS011;28680;45.642;13.756;2023-01-19T16:07:52;1.90;;;1.00;;
35646;SDS011;28680;45.642;13.756;2023-01-19T16:10:18;2.28;;;1.00;;
35646;SDS011;28680;45.642;13.756;2023-01-19T16:12:45;1.40;;;1.08;;
35646;SDS011;28680;45.642;13.756;2023-01-19T16:15:14;2.00;;;0.90;;
35646;SDS011;28680;45.642;13.756;2023-01-19T16:17:42;2.42;;;1.00;;
35646;SDS011;28680;45.642;13.756;2023-01-19T16:20:09;2.10;;;1.00;;
35646;SDS011;28680;45.642;13.756;2023-01-19T16:22:36;1.48;;;0.90;;